Billsburg, South Dakota
Current Conditions -  °F | °C
As of 1:55 AM on Friday 24 Oct 2014 (Local Time) from KPHP Reporting Station
Clear Clear  
Wind Chill: 41°   Ceiling: Unl
Heat Index: 41°   Visibility: 10mi
Dew Point: 31°   Wind: 3mph
Humidity: 67%   Direction: 280°W
Pressure: 29.89"   Gusts: NA
Location:  44.4194°N, 101.806°W
Report Text: KPHP 240755Z AUTO 28003KT 10SM CLR 05/M01 A2989 RMK AO2 SLP117 T00501006
Loading
Personal Weather Stations






























Interactive Weather Map
Tropical Storm Tracking
New forecast layout! Learn more

10-Day Weather Forecast

Advertisements
Track Severe Weather on mobile